Gisborne Aerodrome, New Zealand
Current Conditions -  °F | °C
As of 1:00 PM on Monday 24 Nov 2014 (Local Time) from NZAA Reporting Station
Broken Clouds Broken Clouds  
Wind Chill: 66°   Ceiling: 2500
Heat Index: 66°   Visibility: 6mi
Dew Point: 63°   Wind: 7mph
Humidity: 88%   Direction: 270°W
Pressure: 30.06"   Gusts: NA
Location:  38.67°S, 177.98°E
Report Text: NZAA 240100Z AUTO 27006KT 9999 SCT015/// BKN025/// BKN050///19/17 Q1018 TEMPO 6000 RA BKN012
Loading
Personal Weather Stations






























Interactive Weather Map New forecast layout! Learn more

10-Day Weather Forecast

Advertisements
Track Severe Weather on mobile